Time;durP1;ratioP1;P1;durP2;ratioP2;P2;SDS_P1;SDS_P2;PMS_P1;PMS_P2;Temp;Humidity;BMP_temperature;BMP_pressure;BME280_temperature;BME280_humidity;BME280_pressure;Samples;Min_cycle;Max_cycle;Signal;HPM_P1;HPM_P2
2022/03/14 00:00:22;;;;;;;18.97;13.23;;;;;;;-0.55;53.00;103080.53;2083669;28;20263;-63
2022/03/14 00:01:22;;;;;;;20.25;12.05;;;;;;;-0.49;52.86;103087.53;2083308;28;20179;-63
2022/03/14 00:02:23;;;;;;;18.03;11.93;;;;;;;-2.06;52.46;102828.34;2083340;28;20187;-63
2022/03/14 00:03:25;;;;;;;18.70;11.70;;;;;;;-0.66;52.50;103052.66;2083675;28;20179;-63
2022/03/14 00:04:28;;;;;;;20.00;13.38;;;;;;;-0.41;52.65;103089.53;2083481;28;20176;-63
2022/03/14 00:05:30;;;;;;;20.20;13.23;;;;;;;-0.39;52.94;103081.91;2083748;28;20190;-63
2022/03/14 00:06:32;;;;;;;15.90;11.82;;;;;;;-1.42;53.14;102913.50;2083836;28;20184;-63
2022/03/14 00:07:37;;;;;;;20.15;13.50;;;;;;;-0.33;52.69;103086.13;2083610;28;20191;-63
2022/03/14 00:08:39;;;;;;;17.23;12.02;;;;;;;-1.14;52.19;102949.00;2083820;28;20191;-63
2022/03/14 00:09:40;;;;;;;18.40;11.98;;;;;;;-0.29;52.34;103089.88;2083651;28;20188;-63
2022/03/14 00:10:45;;;;;;;21.30;14.83;;;;;;;-0.27;52.24;103093.94;2083810;28;20192;-63
2022/03/14 00:11:45;;;;;;;24.40;16.65;;;;;;;-0.29;52.08;103085.22;2083544;28;20186;-63
2022/03/14 00:12:49;;;;;;;18.03;11.67;;;;;;;-0.36;51.83;103073.94;2083300;28;20183;-63
2022/03/14 00:13:50;;;;;;;23.13;12.85;;;;;;;-0.26;51.33;103086.53;2083288;28;20260;-63
2022/03/14 00:14:55;;;;;;;21.35;13.00;;;;;;;-0.46;51.32;103059.69;2083001;28;20188;-63
2022/03/14 00:15:56;;;;;;;16.55;12.02;;;;;;;-0.25;51.52;103088.19;2083038;28;20189;-63
2022/03/14 00:16:57;;;;;;;20.88;13.00;;;;;;;-0.21;51.26;103089.19;2083770;28;20270;-63
2022/03/14 00:18:00;;;;;;;18.17;12.10;;;;;;;-0.22;51.15;103089.50;2083708;28;20188;-63
2022/03/14 00:19:00;;;;;;;19.48;13.18;;;;;;;-0.25;51.45;103086.25;2083742;28;20274;-63
2022/03/14 00:20:04;;;;;;;20.20;13.23;;;;;;;-0.22;51.40;103094.94;2083554;28;20187;-63
2022/03/14 00:21:05;;;;;;;19.65;12.48;;;;;;;-0.33;51.33;103072.50;2083696;28;20236;-63
2022/03/14 00:22:06;;;;;;;19.48;12.00;;;;;;;-0.67;50.73;103018.38;2082725;28;20191;-63
2022/03/14 00:23:07;;;;;;;20.48;13.27;;;;;;;-0.23;51.43;103091.41;2082863;28;20184;-63
2022/03/14 00:24:11;;;;;;;23.92;15.57;;;;;;;-1.29;51.63;102925.53;2083297;28;20184;-63
2022/03/14 00:25:12;;;;;;;22.45;13.35;;;;;;;-0.39;51.47;103074.50;2083738;28;20608;-63
2022/03/14 00:26:12;;;;;;;37.17;24.67;;;;;;;-0.30;51.97;103094.50;2083522;28;20184;-63
2022/03/14 00:27:14;;;;;;;42.43;28.27;;;;;;;-0.31;51.76;103103.81;2083673;28;20212;-63
2022/03/14 00:28:15;;;;;;;38.05;25.77;;;;;;;-0.98;51.95;102993.88;2083512;28;20254;-63
2022/03/14 00:29:15;;;;;;;39.70;25.73;;;;;;;-0.32;52.18;103095.91;2083739;28;20186;-63
2022/03/14 00:30:16;;;;;;;31.00;18.23;;;;;;;-0.34;52.31;103096.22;2083419;28;20226;-63
2022/03/14 00:31:17;;;;;;;31.90;20.47;;;;;;;-0.31;52.09;103098.34;2083552;28;20660;-63
2022/03/14 00:32:17;;;;;;;36.60;22.77;;;;;;;-0.29;51.72;103104.31;2083388;28;20278;-63
2022/03/14 00:33:18;;;;;;;34.10;20.77;;;;;;;-0.35;52.20;103088.38;2083568;28;20187;-63
2022/03/14 00:34:19;;;;;;;32.53;22.10;;;;;;;-0.29;52.39;103100.78;2083147;28;20700;-63
2022/03/14 00:35:19;;;;;;;35.47;23.77;;;;;;;-0.28;52.50;103111.41;2083720;28;20228;-63
2022/03/14 00:36:20;;;;;;;38.87;25.13;;;;;;;-0.57;52.58;103058.22;2083607;28;20179;-63
2022/03/14 00:37:20;;;;;;;29.50;18.07;;;;;;;-0.42;52.07;103085.19;2083778;28;20270;-63
2022/03/14 00:38:21;;;;;;;26.63;17.87;;;;;;;-0.54;52.09;103068.53;2083555;28;20166;-63
2022/03/14 00:39:21;;;;;;;28.73;19.53;;;;;;;-0.32;51.79;103104.09;2083585;28;20527;-63
2022/03/14 00:40:22;;;;;;;26.07;16.53;;;;;;;-0.31;51.96;103114.72;2083681;28;20189;-63
2022/03/14 00:41:23;;;;;;;25.80;18.03;;;;;;;-0.32;51.82;103106.81;2083351;28;20178;-63
2022/03/14 00:42:25;;;;;;;28.47;18.17;;;;;;;-0.32;51.71;103107.66;2082721;28;20237;-63
2022/03/14 00:43:27;;;;;;;23.45;15.40;;;;;;;-1.00;51.37;103026.84;2082987;28;20422;-63
2022/03/14 00:44:27;;;;;;;25.83;16.83;;;;;;;-0.40;51.37;103099.34;2082573;28;20733;-63
2022/03/14 00:45:28;;;;;;;22.17;15.87;;;;;;;-0.34;51.50;103117.22;2083656;28;20183;-63
2022/03/14 00:46:29;;;;;;;23.97;16.40;;;;;;;-0.39;51.43;103114.59;2083648;28;20234;-63
2022/03/14 00:47:29;;;;;;;31.80;22.40;;;;;;;-0.96;51.68;103025.94;2083662;28;20259;-63
2022/03/14 00:48:34;;;;;;;34.80;22.57;;;;;;;-0.58;52.10;103083.06;2082955;28;20172;-63
2022/03/14 00:49:35;;;;;;;25.08;16.48;;;;;;;-0.51;52.30;103095.19;2083028;28;20251;-63
2022/03/14 00:50:36;;;;;;;23.50;15.37;;;;;;;-1.13;51.59;103005.81;2083598;28;20233;-63
2022/03/14 00:51:37;;;;;;;22.27;15.67;;;;;;;-0.74;51.61;103066.16;2083148;28;20906;-63
2022/03/14 00:52:37;;;;;;;25.70;15.87;;;;;;;-0.82;51.64;103069.53;2083259;28;20290;-63
2022/03/14 00:53:38;;;;;;;25.13;17.07;;;;;;;-0.55;51.59;103094.16;2083196;28;20279;-63
2022/03/14 00:54:39;;;;;;;25.10;16.90;;;;;;;-0.66;51.64;103085.34;2082819;28;20608;-63
2022/03/14 00:55:39;;;;;;;29.33;17.43;;;;;;;-0.43;51.20;103122.56;2083044;28;20256;-63
2022/03/14 00:56:40;;;;;;;33.80;18.17;;;;;;;-0.44;51.04;103117.41;2083524;28;20677;-63
2022/03/14 00:57:40;;;;;;;32.63;20.30;;;;;;;-0.51;51.31;103120.50;2083559;28;20176;-63
2022/03/14 00:58:41;;;;;;;28.90;17.33;;;;;;;-0.55;51.64;103119.47;2083662;28;20184;-63
2022/03/14 00:59:42;;;;;;;34.80;22.53;;;;;;;-0.73;51.83;103094.19;2083407;28;20172;-63
2022/03/14 01:00:43;;;;;;;33.13;19.88;;;;;;;-0.63;52.13;103122.88;2083391;28;20180;-63
2022/03/14 01:01:44;;;;;;;39.23;24.93;;;;;;;-0.65;52.05;103125.06;2083385;28;20187;-63
2022/03/14 01:02:48;;;;;;;38.00;25.43;;;;;;;-0.68;52.89;103120.25;2083134;28;20203;-63
2022/03/14 01:03:48;;;;;;;30.35;21.17;;;;;;;-0.68;53.34;103116.69;2083244;28;20187;-63
2022/03/14 01:04:49;;;;;;;27.50;19.07;;;;;;;-1.23;53.71;103044.06;2083503;28;20679;-63
2022/03/14 01:05:49;;;;;;;28.17;19.73;;;;;;;-0.76;53.58;103118.19;2083564;28;20184;-63
2022/03/14 01:06:50;;;;;;;31.47;20.60;;;;;;;-0.75;53.79;103119.78;2083576;28;20305;-62
2022/03/14 01:07:50;;;;;;;31.67;21.20;;;;;;;-0.80;53.40;103119.06;2082316;28;20737;-63
2022/03/14 01:08:51;;;;;;;34.43;22.30;;;;;;;-0.82;53.88;103115.03;2081942;28;20190;-63
2022/03/14 01:09:51;;;;;;;34.20;23.03;;;;;;;-0.77;53.65;103112.22;2082167;28;20184;-63
2022/03/14 01:10:52;;;;;;;33.67;23.10;;;;;;;-0.78;53.83;103113.34;2082302;28;20179;-63
2022/03/14 01:11:52;;;;;;;32.47;21.53;;;;;;;-1.65;54.04;102970.72;2082070;28;20194;-63
2022/03/14 01:12:54;;;;;;;32.33;21.87;;;;;;;-0.77;54.26;103118.47;2081805;28;20190;-63
2022/03/14 01:13:55;;;;;;;32.45;22.15;;;;;;;-1.29;54.22;103025.41;2081620;28;20268;-63
2022/03/14 01:14:56;;;;;;;32.38;21.83;;;;;;;-0.72;54.54;103121.94;2082234;28;20176;-63
2022/03/14 01:15:58;;;;;;;31.20;20.93;;;;;;;-0.68;54.33;103115.91;2082230;28;20175;-63
2022/03/14 01:16:58;;;;;;;34.20;22.50;;;;;;;-0.66;53.76;103119.94;2082179;28;20627;-63
2022/03/14 01:17:59;;;;;;;32.83;20.73;;;;;;;-0.88;53.11;103078.91;2082137;28;20190;-63
2022/03/14 01:19:00;;;;;;;30.10;21.15;;;;;;;-0.66;53.47;103119.94;2082171;28;20178;-63
2022/03/14 01:20:01;;;;;;;41.70;24.53;;;;;;;-0.67;53.81;103123.75;2082090;28;20210;-63
2022/03/14 01:21:01;;;;;;;35.37;22.57;;;;;;;-0.67;53.71;103121.84;2082177;28;20548;-63
2022/03/14 01:22:02;;;;;;;27.33;17.40;;;;;;;-0.63;53.76;103122.06;2081837;28;20174;-63
2022/03/14 01:23:02;;;;;;;33.27;21.87;;;;;;;-0.65;53.62;103116.91;2081687;28;20202;-63
2022/03/14 01:24:04;;;;;;;38.57;23.83;;;;;;;-0.68;53.75;103113.97;2081640;28;20618;-63
2022/03/14 01:25:05;;;;;;;38.28;24.10;;;;;;;-0.72;54.27;103127.38;2082100;28;20254;-63
2022/03/14 01:26:08;;;;;;;39.22;23.85;;;;;;;-0.76;54.34;103122.84;2082078;28;20217;-63
2022/03/14 01:27:09;;;;;;;35.42;22.52;;;;;;;-0.76;54.28;103118.19;2082193;28;20673;-63
2022/03/14 01:28:09;;;;;;;34.53;21.97;;;;;;;-0.82;53.98;103110.38;2082031;28;20689;-63
2022/03/14 01:29:10;;;;;;;34.67;21.47;;;;;;;-0.69;54.00;103142.31;2082134;28;20198;-63
2022/03/14 01:30:11;;;;;;;33.67;22.03;;;;;;;-1.68;53.99;102965.06;2081995;28;20169;-63
2022/03/14 01:31:12;;;;;;;32.57;21.87;;;;;;;-0.71;53.99;103123.53;2082147;28;20417;-63
2022/03/14 01:32:12;;;;;;;31.27;19.83;;;;;;;-1.12;54.40;103061.88;2081961;28;20654;-63
2022/03/14 01:33:13;;;;;;;33.70;22.20;;;;;;;-1.96;54.07;102936.09;2081794;28;20270;-63
2022/03/14 01:34:14;;;;;;;34.35;22.13;;;;;;;-0.69;54.42;103128.69;2080657;28;20208;-63
2022/03/14 01:35:17;;;;;;;33.87;22.00;;;;;;;-0.68;54.61;103132.25;2081364;28;20187;-63
2022/03/14 01:36:18;;;;;;;32.33;20.77;;;;;;;-0.68;54.12;103128.41;2081976;28;20178;-63
2022/03/14 01:37:19;;;;;;;29.57;19.33;;;;;;;-1.67;53.57;102965.56;2082096;28;20186;-63
2022/03/14 01:38:19;;;;;;;26.67;17.43;;;;;;;-0.67;52.75;103132.75;2082011;28;20413;-63
2022/03/14 01:39:20;;;;;;;27.43;17.00;;;;;;;-0.70;52.55;103132.53;2082056;28;20642;-63
2022/03/14 01:40:21;;;;;;;26.07;17.77;;;;;;;-0.76;52.89;103126.34;2082032;28;20234;-63
2022/03/14 01:41:26;;;;;;;25.07;17.07;;;;;;;-0.78;53.45;103127.75;2081911;28;20549;-63
2022/03/14 01:42:27;;;;;;;24.05;16.48;;;;;;;-0.85;54.09;103133.56;2081521;28;20237;-63
2022/03/14 01:43:27;;;;;;;24.40;16.67;;;;;;;-0.89;54.35;103131.72;2082017;28;20179;-63
2022/03/14 01:44:28;;;;;;;22.93;15.73;;;;;;;-0.89;54.77;103131.72;2081169;28;20190;-63
2022/03/14 01:45:29;;;;;;;21.42;15.57;;;;;;;-0.91;54.64;103137.47;2081470;28;20176;-63
2022/03/14 01:46:30;;;;;;;25.13;16.77;;;;;;;-1.24;54.91;103087.91;2073792;28;20186;-63
2022/03/14 01:47:30;;;;;;;29.40;16.60;;;;;;;-0.93;54.39;103138.84;2073766;28;20677;-63
2022/03/14 01:48:31;;;;;;;25.83;16.70;;;;;;;-1.06;54.38;103112.41;2073771;28;20179;-63
2022/03/14 01:49:31;;;;;;;24.67;17.30;;;;;;;-0.89;55.24;103144.56;2073725;28;20214;-63
2022/03/14 01:50:34;;;;;;;27.40;16.93;;;;;;;-0.98;54.34;103135.41;2073721;28;20215;-63
2022/03/14 01:51:34;;;;;;;25.33;17.88;;;;;;;-1.02;53.66;103133.28;2073299;28;20228;-63
2022/03/14 01:52:35;;;;;;;25.63;16.90;;;;;;;-0.90;54.72;103141.00;2073509;28;20225;-63
2022/03/14 01:53:36;;;;;;;30.50;17.67;;;;;;;-0.94;54.84;103150.84;2073597;28;20212;-62
2022/03/14 01:54:38;;;;;;;24.88;17.48;;;;;;;-1.02;55.28;103150.72;2073368;28;20597;-63
2022/03/14 01:55:38;;;;;;;26.58;18.48;;;;;;;-1.18;55.82;103113.94;2073656;28;20276;-63
2022/03/14 01:56:40;;;;;;;25.47;17.40;;;;;;;-1.02;56.13;103148.00;2073606;28;20654;-63
2022/03/14 01:57:41;;;;;;;29.63;17.48;;;;;;;-1.06;56.18;103145.06;2073590;28;20186;-63
2022/03/14 01:58:42;;;;;;;25.90;17.52;;;;;;;-1.58;56.17;103078.00;2073783;28;20682;-63
2022/03/14 01:59:43;;;;;;;25.20;16.70;;;;;;;-1.15;56.20;103144.09;2073574;28;20577;-63
2022/03/14 02:00:44;;;;;;;25.23;16.90;;;;;;;-1.14;56.41;103155.78;2073770;28;20188;-63
2022/03/14 02:01:45;;;;;;;22.83;16.20;;;;;;;-1.98;55.88;103019.81;2073507;28;20693;-62
2022/03/14 02:02:47;;;;;;;27.17;17.33;;;;;;;-1.13;55.69;103159.00;2073408;28;20198;-63
2022/03/14 02:03:51;;;;;;;33.33;18.02;;;;;;;-1.14;55.30;103153.84;2073231;28;20176;-63
2022/03/14 02:04:52;;;;;;;34.25;18.73;;;;;;;-1.99;55.37;103023.63;2073745;28;20188;-63
2022/03/14 02:05:52;;;;;;;25.23;16.53;;;;;;;-1.13;55.16;103160.13;2073545;28;20271;-63
2022/03/14 02:06:54;;;;;;;27.80;16.50;;;;;;;-1.13;56.01;103201.72;2073615;28;20180;-63
2022/03/14 02:07:57;;;;;;;26.65;17.15;;;;;;;-1.11;55.75;103159.53;2073504;28;20180;-63
2022/03/14 02:08:58;;;;;;;24.08;15.32;;;;;;;-1.12;55.82;103162.56;2073659;28;20183;-63
2022/03/14 02:09:59;;;;;;;24.23;15.60;;;;;;;-1.27;55.81;103170.91;2073549;28;20184;-63
2022/03/14 02:10:59;;;;;;;21.37;15.17;;;;;;;-1.26;56.16;103167.88;2073706;28;20175;-63
2022/03/14 02:12:00;;;;;;;20.13;14.73;;;;;;;-1.20;56.19;103168.63;2072720;28;20201;-63
2022/03/14 02:13:09;;;;;;;23.37;14.63;;;;;;;-2.18;56.25;103012.72;2072693;28;20260;-63
2022/03/14 02:14:09;;;;;;;22.15;14.77;;;;;;;-1.23;56.38;103171.94;2073219;28;20204;-63
2022/03/14 02:15:10;;;;;;;23.47;15.30;;;;;;;-1.23;56.69;103170.03;2073578;28;20733;-63
2022/03/14 02:16:11;;;;;;;24.67;15.17;;;;;;;-1.30;56.40;103174.22;2073459;28;20236;-63
2022/03/14 02:17:14;;;;;;;23.67;15.03;;;;;;;-1.45;56.63;103165.44;2073693;28;20531;-63
2022/03/14 02:18:15;;;;;;;23.02;15.25;;;;;;;-1.38;56.47;103178.38;2072786;28;20176;-63
2022/03/14 02:19:17;;;;;;;21.53;14.77;;;;;;;-2.22;55.78;103065.22;2072778;28;20177;-63
2022/03/14 02:20:17;;;;;;;20.67;13.77;;;;;;;-1.37;56.26;103181.94;2073510;28;20612;-63
2022/03/14 02:21:18;;;;;;;23.90;14.93;;;;;;;-1.46;56.25;103170.06;2073447;28;20175;-63
2022/03/14 02:22:19;;;;;;;24.23;15.50;;;;;;;-1.40;56.31;103179.78;2072559;28;20192;-63
2022/03/14 02:23:20;;;;;;;22.30;14.85;;;;;;;-1.38;55.71;103185.75;2064638;28;20176;-63
2022/03/14 02:24:21;;;;;;;22.60;14.67;;;;;;;-1.38;55.61;103190.38;2072525;28;20187;-63
2022/03/14 02:25:22;;;;;;;21.40;13.85;;;;;;;-1.38;55.64;103182.22;2073516;28;20207;-63
2022/03/14 02:26:22;;;;;;;19.53;13.03;;;;;;;-1.43;55.81;103187.72;2073641;28;20180;-62
2022/03/14 02:27:23;;;;;;;17.47;12.40;;;;;;;-1.49;56.42;103191.59;2073421;28;20191;-63
2022/03/14 02:28:24;;;;;;;19.80;12.63;;;;;;;-1.55;56.64;103185.38;2073495;28;20179;-63
2022/03/14 02:29:25;;;;;;;18.67;12.75;;;;;;;-2.00;56.83;103128.78;2073552;28;20166;-63
2022/03/14 02:30:25;;;;;;;17.23;12.83;;;;;;;-1.70;57.13;103193.72;2073351;28;20179;-63
2022/03/14 02:31:26;;;;;;;19.70;12.70;;;;;;;-1.69;56.90;103191.81;2073307;28;20177;-62
2022/03/14 02:32:26;;;;;;;17.83;12.37;;;;;;;-1.79;57.40;103181.88;2072982;28;20194;-63
2022/03/14 02:33:27;;;;;;;16.73;11.43;;;;;;;-1.77;57.27;103189.72;2073314;28;20197;-63
2022/03/14 02:34:27;;;;;;;15.03;11.83;;;;;;;-1.86;57.60;103189.53;2073170;28;20234;-62
2022/03/14 02:35:28;;;;;;;16.43;11.33;;;;;;;-2.49;57.82;103108.34;2073443;28;20234;-63
2022/03/14 02:36:29;;;;;;;16.40;11.90;;;;;;;-2.29;57.82;103132.63;2073305;28;20242;-63
2022/03/14 02:37:29;;;;;;;17.53;12.13;;;;;;;-2.12;57.71;103177.28;2073509;28;20210;-63
2022/03/14 02:38:30;;;;;;;18.50;12.00;;;;;;;-2.01;58.02;103191.59;2073458;28;20200;-63
2022/03/14 02:39:37;;;;;;;18.33;12.20;;;;;;;-2.07;57.78;103201.69;2073437;28;20241;-63
2022/03/14 02:40:39;;;;;;;18.15;11.65;;;;;;;-2.00;57.97;103194.00;2073447;28;20166;-63
2022/03/14 02:41:40;;;;;;;19.25;12.30;;;;;;;-2.97;57.66;103036.03;2073160;28;20798;-62
2022/03/14 02:42:41;;;;;;;17.70;12.70;;;;;;;-1.96;58.19;103208.66;2073345;28;20174;-63
2022/03/14 02:43:41;;;;;;;16.90;12.37;;;;;;;-1.94;57.64;103206.47;2073898;28;20223;-62
2022/03/14 02:44:43;;;;;;;17.97;12.03;;;;;;;-1.93;58.03;103201.84;2081448;28;20246;-63
2022/03/14 02:45:45;;;;;;;18.42;12.65;;;;;;;-2.17;57.83;103168.38;2081485;28;20669;-63
2022/03/14 02:46:46;;;;;;;18.50;12.63;;;;;;;-3.20;57.96;103013.16;2081495;28;20178;-63
2022/03/14 02:47:46;;;;;;;19.97;12.03;;;;;;;-1.99;57.92;103209.25;2080880;28;20221;-62
2022/03/14 02:48:47;;;;;;;15.00;11.07;;;;;;;-2.05;57.57;103206.84;2080951;28;20628;-63
2022/03/14 02:49:48;;;;;;;16.67;11.60;;;;;;;-2.03;57.90;103203.53;2081305;28;20235;-63
2022/03/14 02:50:53;;;;;;;16.50;11.33;;;;;;;-2.77;58.05;103098.28;2081649;28;20260;-62
2022/03/14 02:51:53;;;;;;;19.63;12.05;;;;;;;-1.99;57.49;103208.41;2081313;28;20631;-63
2022/03/14 02:52:54;;;;;;;16.17;11.00;;;;;;;-1.97;57.64;103193.44;2080489;28;20264;-63
2022/03/14 02:53:57;;;;;;;16.73;11.20;;;;;;;-1.92;57.19;103204.28;2080396;28;20194;-62
2022/03/14 02:54:58;;;;;;;17.15;11.43;;;;;;;-1.90;57.26;103209.44;2081437;28;20179;-63
2022/03/14 02:55:58;;;;;;;16.17;11.23;;;;;;;-1.96;56.99;103200.50;2081334;28;20409;-63
2022/03/14 02:56:59;;;;;;;18.03;11.43;;;;;;;-1.88;57.39;103210.75;2081519;28;20198;-63
2022/03/14 02:57:59;;;;;;;17.20;10.97;;;;;;;-1.89;57.00;103214.59;2081232;28;20169;-63
2022/03/14 02:59:01;;;;;;;18.50;11.73;;;;;;;-2.35;57.25;103153.59;2081348;28;20245;-63
2022/03/14 03:00:05;;;;;;;18.00;11.32;;;;;;;-2.23;57.53;103164.88;2081296;28;20179;-63
2022/03/14 03:01:07;;;;;;;18.42;11.75;;;;;;;-2.23;57.46;103177.66;2081515;28;20186;-63
2022/03/14 03:02:10;;;;;;;17.98;12.48;;;;;;;-2.02;57.47;103204.38;2081202;28;20209;-63
2022/03/14 03:03:12;;;;;;;18.95;12.70;;;;;;;-1.92;57.42;103214.31;2081212;28;20178;-63
2022/03/14 03:04:12;;;;;;;19.52;11.77;;;;;;;-2.33;57.37;103158.72;2080973;28;20207;-63
2022/03/14 03:05:13;;;;;;;16.60;11.53;;;;;;;-1.92;57.64;103217.03;2080782;28;20178;-62
2022/03/14 03:06:14;;;;;;;18.53;13.40;;;;;;;-1.90;57.84;103218.38;2080807;28;20228;-63
2022/03/14 03:07:14;;;;;;;20.65;12.48;;;;;;;-2.01;58.10;103226.94;2081360;28;20709;-63
2022/03/14 03:08:15;;;;;;;18.63;11.83;;;;;;;-2.22;58.40;103198.31;2081263;28;20573;-62
2022/03/14 03:09:16;;;;;;;17.50;12.10;;;;;;;-2.98;58.12;103075.91;2081424;28;20179;-63
2022/03/14 03:10:23;;;;;;;19.07;12.33;;;;;;;-2.13;58.80;103221.84;2081418;28;20175;-63
2022/03/14 03:11:23;;;;;;;20.05;12.90;;;;;;;-2.98;58.28;103088.69;2081412;28;20163;-62
2022/03/14 03:12:29;;;;;;;17.27;12.07;;;;;;;-2.15;58.48;103229.50;2081040;28;20182;-63
2022/03/14 03:13:31;;;;;;;17.48;12.25;;;;;;;-3.31;58.75;103046.03;2081292;28;20551;-63
2022/03/14 03:14:31;;;;;;;19.35;12.70;;;;;;;-2.18;59.01;103227.31;2080840;28;20179;-63
2022/03/14 03:15:32;;;;;;;19.23;12.67;;;;;;;-2.19;58.59;103233.88;2081266;28;20185;-63
2022/03/14 03:16:34;;;;;;;17.07;12.53;;;;;;;-2.23;58.67;103234.69;2081311;28;20252;-63
2022/03/14 03:17:34;;;;;;;18.40;11.68;;;;;;;-2.26;58.70;103236.06;2081307;28;20512;-62
2022/03/14 03:18:36;;;;;;;18.57;12.20;;;;;;;-2.26;59.03;103243.44;2081297;28;20181;-63
2022/03/14 03:19:36;;;;;;;17.90;12.13;;;;;;;-2.26;59.30;103238.00;2081131;28;20178;-63
2022/03/14 03:20:37;;;;;;;17.50;12.53;;;;;;;-2.25;59.04;103231.47;2081352;28;20212;-63
2022/03/14 03:21:38;;;;;;;16.63;11.93;;;;;;;-2.24;59.01;103231.19;2081025;28;20187;-63
2022/03/14 03:22:39;;;;;;;19.17;12.85;;;;;;;-2.18;58.79;103238.19;2080876;28;20181;-62
2022/03/14 03:23:40;;;;;;;16.60;11.53;;;;;;;-2.14;58.42;103233.81;2081042;28;20188;-62
2022/03/14 03:24:41;;;;;;;19.02;12.65;;;;;;;-2.08;58.36;103246.28;2081235;28;20227;-63
2022/03/14 03:25:41;;;;;;;19.93;12.00;;;;;;;-2.12;58.78;103242.50;2081250;28;20203;-63
2022/03/14 03:26:42;;;;;;;20.40;13.53;;;;;;;-2.10;58.73;103251.16;2081367;28;20190;-63
2022/03/14 03:27:43;;;;;;;19.97;13.07;;;;;;;-2.50;58.85;103177.34;2081159;28;20194;-62
2022/03/14 03:28:43;;;;;;;20.30;13.53;;;;;;;-2.10;58.85;103244.94;2081165;28;20577;-62
2022/03/14 03:29:44;;;;;;;22.87;12.90;;;;;;;-2.04;58.56;103243.78;2081210;28;20175;-63
2022/03/14 03:30:44;;;;;;;23.13;14.60;;;;;;;-2.00;58.76;103242.13;2081114;28;20216;-63
2022/03/14 03:31:45;;;;;;;21.47;13.87;;;;;;;-2.00;58.22;103244.84;2080700;28;20206;-62
2022/03/14 03:32:46;;;;;;;23.90;14.43;;;;;;;-3.52;58.44;103023.69;2080753;28;20176;-63
2022/03/14 03:33:48;;;;;;;22.67;13.80;;;;;;;-1.98;58.52;103248.91;2080763;28;20883;-62
2022/03/14 03:34:49;;;;;;;22.83;14.32;;;;;;;-1.97;58.34;103247.81;2081330;28;20606;-62
2022/03/14 03:35:49;;;;;;;18.60;13.90;;;;;;;-1.94;58.21;103246.41;2080432;28;20240;-63
2022/03/14 03:36:50;;;;;;;20.27;14.00;;;;;;;-2.51;58.25;103145.84;2080691;28;20193;-63
2022/03/14 03:37:50;;;;;;;27.10;15.00;;;;;;;-1.98;58.12;103256.22;2081035;28;20169;-63
2022/03/14 03:38:51;;;;;;;22.90;14.70;;;;;;;-1.95;58.47;103248.31;2081112;28;20651;-63
2022/03/14 03:39:51;;;;;;;22.07;15.37;;;;;;;-1.92;58.91;103241.50;2081115;28;20262;-63
2022/03/14 03:40:52;;;;;;;21.97;14.77;;;;;;;-1.87;57.96;103245.00;2081130;28;20264;-63
2022/03/14 03:41:53;;;;;;;25.27;14.00;;;;;;;-1.88;58.32;103252.31;2080740;28;20183;-63
2022/03/14 03:42:53;;;;;;;21.67;14.13;;;;;;;-1.80;58.16;103248.19;2080649;28;20239;-63
2022/03/14 03:43:54;;;;;;;19.90;14.13;;;;;;;-1.79;58.10;103254.44;2080715;28;20219;-63
2022/03/14 03:44:54;;;;;;;22.60;15.13;;;;;;;-1.75;57.48;103258.22;2081185;28;20767;-63
2022/03/14 03:45:55;;;;;;;21.77;14.57;;;;;;;-2.22;57.48;103180.09;2081031;28;20175;-63
2022/03/14 03:46:56;;;;;;;19.93;14.67;;;;;;;-1.68;57.47;103255.97;2081199;28;20651;-63
2022/03/14 03:47:56;;;;;;;23.27;15.57;;;;;;;-1.62;57.31;103267.31;2080850;28;20174;-63
2022/03/14 03:48:57;;;;;;;23.70;16.40;;;;;;;-1.58;57.15;103260.19;2081163;28;20181;-63
2022/03/14 03:49:57;;;;;;;25.30;16.60;;;;;;;-1.55;56.95;103266.97;2080956;28;20175;-63
2022/03/14 03:50:58;;;;;;;21.73;15.50;;;;;;;-1.65;56.53;103244.53;2081006;28;20207;-63
2022/03/14 03:51:58;;;;;;;24.00;15.63;;;;;;;-1.61;56.78;103265.41;2080909;28;20621;-62
2022/03/14 03:52:59;;;;;;;22.37;15.30;;;;;;;-1.73;57.19;103253.28;2080746;28;20235;-63
2022/03/14 03:54:00;;;;;;;22.40;14.00;;;;;;;-1.64;56.97;103263.25;2080555;28;20208;-63
2022/03/14 03:55:00;;;;;;;21.27;14.77;;;;;;;-1.60;57.31;103269.75;2080765;28;20181;-63
2022/03/14 03:56:01;;;;;;;22.80;14.40;;;;;;;-1.57;57.00;103277.34;2080980;28;20268;-63
2022/03/14 03:57:01;;;;;;;20.57;12.43;;;;;;;-1.50;56.47;103266.91;2081079;28;20583;-63
2022/03/14 03:58:03;;;;;;;22.50;14.00;;;;;;;-1.47;55.93;103277.25;2081044;28;20204;-63
2022/03/14 03:59:03;;;;;;;19.40;13.68;;;;;;;-1.48;55.96;103277.50;2081175;28;20185;-63
2022/03/14 04:00:07;;;;;;;20.93;12.73;;;;;;;-1.53;55.84;103264.78;2080934;28;20185;-63
2022/03/14 04:01:08;;;;;;;17.52;12.57;;;;;;;-1.47;55.22;103286.19;2081136;28;20169;-63
2022/03/14 04:02:09;;;;;;;20.38;12.88;;;;;;;-1.46;55.17;103281.56;2080807;28;20192;-62
2022/03/14 04:03:09;;;;;;;16.77;12.30;;;;;;;-1.69;55.30;103244.25;2080698;28;20707;-63
2022/03/14 04:04:11;;;;;;;19.80;12.97;;;;;;;-1.48;55.08;103287.28;2080678;28;20171;-63
2022/03/14 04:05:14;;;;;;;17.02;12.68;;;;;;;-2.81;54.95;103062.78;2081190;28;20204;-63
2022/03/14 04:06:20;;;;;;;22.80;13.70;;;;;;;-1.47;55.19;103288.91;2080928;28;20219;-62
2022/03/14 04:07:23;;;;;;;22.23;14.57;;;;;;;-2.38;56.15;103170.44;2081255;28;20153;-63
2022/03/14 04:08:24;;;;;;;20.20;13.80;;;;;;;-1.69;56.32;103298.63;2080888;28;20220;-63
2022/03/14 04:09:26;;;;;;;19.38;12.60;;;;;;;-1.62;56.29;103297.22;2081072;28;20604;-63
2022/03/14 04:10:30;;;;;;;19.02;12.25;;;;;;;-2.06;56.14;103232.41;2080981;28;20268;-63
2022/03/14 04:11:30;;;;;;;18.77;12.90;;;;;;;-1.55;55.27;103299.59;2080701;28;20181;-63
2022/03/14 04:12:31;;;;;;;20.37;13.23;;;;;;;-1.53;54.98;103313.75;2080542;28;20173;-63
2022/03/14 04:13:31;;;;;;;21.90;11.93;;;;;;;-1.73;54.30;103251.38;2080837;28;20183;-63
2022/03/14 04:14:32;;;;;;;24.90;12.83;;;;;;;-2.48;53.58;103140.66;2080630;28;20177;-63
2022/03/14 04:15:58;;;;;;;17.23;11.23;;;;;;;-1.53;53.08;103302.88;2080957;28;20207;-62
2022/03/14 04:17:04;;;;;;;17.05;11.27;;;;;;;-1.60;54.18;103307.00;2080893;28;20251;-63
2022/03/14 04:18:04;;;;;;;16.50;11.93;;;;;;;-1.66;53.92;103336.16;2080826;28;20169;-63
2022/03/14 04:19:05;;;;;;;18.63;12.60;;;;;;;-1.65;53.33;103307.06;2080923;28;20239;-63
2022/03/14 04:20:07;;;;;;;20.40;13.80;;;;;;;-1.70;53.46;103299.75;2080796;28;20210;-63
2022/03/14 04:21:08;;;;;;;17.63;12.20;;;;;;;-1.73;53.37;103303.06;2080269;28;20200;-62
2022/03/14 04:22:09;;;;;;;18.47;12.23;;;;;;;-1.74;54.35;103308.75;2080138;28;20181;-63
2022/03/14 04:23:10;;;;;;;25.17;12.52;;;;;;;-1.77;54.86;103301.16;2080612;28;20647;-62
2022/03/14 04:24:11;;;;;;;23.33;13.60;;;;;;;-1.77;54.24;103306.59;2080477;28;20528;-63
2022/03/14 04:25:11;;;;;;;19.83;12.83;;;;;;;-2.11;53.81;103254.19;2081013;28;20198;-62
2022/03/14 04:26:12;;;;;;;23.13;13.97;;;;;;;-1.88;54.10;103294.19;2080763;28;20173;-62
2022/03/14 04:27:13;;;;;;;22.63;14.77;;;;;;;-1.86;55.71;103302.91;2080967;28;20556;-63
2022/03/14 04:28:15;;;;;;;26.37;16.27;;;;;;;-2.69;55.88;103165.53;2080838;28;20208;-63
2022/03/14 04:29:16;;;;;;;21.88;14.52;;;;;;;-2.03;55.55;103276.91;2081016;28;20161;-63
2022/03/14 04:30:16;;;;;;;22.40;14.30;;;;;;;-1.86;54.66;103297.47;2080908;28;20227;-63
2022/03/14 04:31:17;;;;;;;19.90;13.93;;;;;;;-2.42;54.04;103210.13;2080850;28;20311;-63
2022/03/14 04:32:17;;;;;;;21.67;14.97;;;;;;;-1.86;54.56;103311.06;2080660;28;20172;-63
2022/03/14 04:33:18;;;;;;;24.37;16.47;;;;;;;-1.89;54.46;103317.03;2080927;28;20179;-63
2022/03/14 04:34:18;;;;;;;25.63;15.43;;;;;;;-1.90;54.33;103310.78;2080474;28;20313;-63
2022/03/14 04:35:19;;;;;;;21.87;14.63;;;;;;;-1.88;54.75;103307.78;2081073;28;20185;-63
2022/03/14 04:36:20;;;;;;;20.73;13.67;;;;;;;-2.15;55.07;103278.41;2080992;28;20174;-63
2022/03/14 04:37:20;;;;;;;22.40;14.50;;;;;;;-1.87;55.08;103323.81;2080977;28;20173;-63
2022/03/14 04:38:21;;;;;;;27.73;15.83;;;;;;;-1.85;55.33;103318.91;2080716;28;20231;-63